Time;durP1;ratioP1;P1;durP2;ratioP2;P2;SDS_P1;SDS_P2;PMS_P1;PMS_P2;Temp;Humidity;BMP_temperature;BMP_pressure;BME280_temperature;BME280_humidity;BME280_pressure;Samples;Min_cycle;Max_cycle;Signal;HPM_P1;HPM_P2
2023/03/09 00:01:43;;;;;;;30.55;8.13;;;1.80;99.90;;;;;;5054483;28;20053;-76
2023/03/09 00:04:14;;;;;;;25.90;8.25;;;1.80;99.90;;;;;;5055769;28;20115;-73
2023/03/09 00:06:40;;;;;;;33.20;8.13;;;1.80;99.90;;;;;;5054747;28;20049;-75
2023/03/09 00:09:07;;;;;;;35.08;8.63;;;1.80;99.90;;;;;;5054816;28;20084;-74
2023/03/09 00:11:33;;;;;;;28.52;7.78;;;1.70;99.90;;;;;;5054606;28;20432;-73
2023/03/09 00:13:59;;;;;;;26.05;7.97;;;1.70;99.90;;;;;;5054446;28;20040;-75
2023/03/09 00:16:28;;;;;;;29.02;8.23;;;1.70;99.90;;;;;;5055731;28;20044;-75
2023/03/09 00:18:57;;;;;;;35.40;9.05;;;1.70;99.90;;;;;;5054354;28;20128;-75
2023/03/09 00:21:36;;;;;;;33.97;10.20;;;1.60;99.90;;;;;;5054357;28;20041;-76
2023/03/09 00:24:12;;;;;;;34.55;9.13;;;1.40;99.90;;;;;;5055218;28;20041;-74
2023/03/09 00:26:42;;;;;;;31.67;8.82;;;1.40;99.90;;;;;;5061572;28;20063;-74
2023/03/09 00:29:11;;;;;;;34.50;8.80;;;1.50;99.90;;;;;;5076300;28;20043;-74
2023/03/09 00:31:37;;;;;;;28.83;8.25;;;1.30;99.90;;;;;;5077606;28;20456;-75
2023/03/09 00:34:03;;;;;;;32.00;8.88;;;1.40;99.90;;;;;;5095543;28;20454;-75
2023/03/09 00:36:29;;;;;;;30.23;8.35;;;1.40;99.90;;;;;;5096002;28;20086;-74
2023/03/09 00:38:56;;;;;;;32.53;8.88;;;1.40;99.90;;;;;;5078472;28;20425;-73
2023/03/09 00:41:23;;;;;;;25.23;7.97;;;1.30;99.90;;;;;;5095434;28;20101;-75
2023/03/09 00:43:49;;;;;;;;;;;1.30;99.90;;;;;;5077476;28;20044;-74
2023/03/09 00:46:16;;;;;;;32.85;9.00;;;1.30;99.90;;;;;;5095225;28;19926;-75
2023/03/09 00:48:42;;;;;;;32.45;8.75;;;1.30;99.90;;;;;;5060583;28;20051;-75
2023/03/09 00:51:08;;;;;;;39.83;9.65;;;1.30;99.90;;;;;;5077456;28;20040;-74
2023/03/09 00:53:34;;;;;;;29.80;8.23;;;1.40;99.90;;;;;;5076986;28;20044;-73
2023/03/09 00:56:02;;;;;;;33.92;9.45;;;1.30;99.90;;;;;;5094942;28;20060;-75
2023/03/09 00:58:29;;;;;;;39.17;10.27;;;1.20;99.90;;;;;;5060253;28;20050;-73
2023/03/09 01:00:54;;;;;;;35.95;9.90;;;1.20;99.90;;;;;;5077103;28;20047;-75
2023/03/09 01:03:20;;;;;;;39.50;10.63;;;1.20;99.90;;;;;;5094613;28;20085;-75
2023/03/09 01:05:46;;;;;;;38.42;9.65;;;1.20;99.90;;;;;;5060220;28;20044;-75
2023/03/09 01:08:12;;;;;;;41.95;10.90;;;1.30;99.90;;;;;;5077285;28;20513;-75
2023/03/09 01:10:39;;;;;;;45.00;11.05;;;1.20;99.90;;;;;;5060371;28;20044;-75
2023/03/09 01:13:04;;;;;;;46.38;14.23;;;1.10;99.90;;;;;;5076784;28;20602;-75
2023/03/09 01:15:30;;;;;;;41.47;11.30;;;1.10;99.90;;;;;;5094598;28;20123;-74
2023/03/09 01:17:56;;;;;;;45.20;11.27;;;1.10;99.90;;;;;;5094847;28;20391;-74
2023/03/09 01:20:22;;;;;;;41.67;11.25;;;1.10;99.90;;;;;;5076468;28;20036;-72
2023/03/09 01:22:48;;;;;;;40.22;9.98;;;1.10;99.90;;;;;;5095063;28;20044;-74
2023/03/09 01:25:13;;;;;;;45.38;11.88;;;1.00;99.90;;;;;;5077137;28;20055;-71
2023/03/09 01:27:39;;;;;;;51.42;11.98;;;1.10;99.90;;;;;;5076465;28;20060;-75
2023/03/09 01:30:06;;;;;;;41.47;10.73;;;1.10;99.90;;;;;;5094453;28;20051;-75
2023/03/09 01:32:32;;;;;;;40.53;10.02;;;1.00;99.90;;;;;;5043726;28;20131;-77
2023/03/09 01:34:57;;;;;;;38.88;10.02;;;1.10;99.90;;;;;;5094312;28;20132;-73
2023/03/09 01:37:23;;;;;;;50.38;11.98;;;1.10;99.90;;;;;;5094802;28;20472;-74
2023/03/09 01:39:49;;;;;;;46.88;13.75;;;1.10;99.90;;;;;;5076763;28;20044;-74
2023/03/09 01:42:15;;;;;;;47.88;10.70;;;1.10;99.90;;;;;;5059373;28;20044;-73
2023/03/09 01:44:41;;;;;;;43.47;11.02;;;1.10;99.90;;;;;;5059666;28;20048;-73
2023/03/09 01:47:07;;;;;;;43.22;10.90;;;1.10;99.90;;;;;;5075979;28;20048;-74
2023/03/09 01:49:50;;;;;;;40.58;10.80;;;1.10;99.90;;;;;;5094051;28;20060;-73
2023/03/09 01:52:26;;;;;;;39.22;10.57;;;1.10;99.90;;;;;;5093993;28;20044;-74
2023/03/09 01:55:05;;;;;;;44.78;10.70;;;1.10;99.90;;;;;;5059362;28;20044;-74
2023/03/09 01:57:36;;;;;;;49.53;13.32;;;1.10;99.90;;;;;;5093720;28;20095;-74
2023/03/09 02:00:24;;;;;;;45.38;11.23;;;1.00;99.90;;;;;;5059457;28;20055;-75
2023/03/09 02:02:55;;;;;;;48.78;12.85;;;1.00;99.90;;;;;;5094221;28;20051;-72
2023/03/09 02:05:28;;;;;;;44.75;11.15;;;0.90;99.90;;;;;;5094254;28;20047;-73
2023/03/09 02:07:54;;;;;;;52.30;14.45;;;0.90;99.90;;;;;;5094221;28;20372;-71
2023/03/09 02:10:29;;;;;;;51.60;12.73;;;1.00;99.90;;;;;;5059287;28;20170;-74
2023/03/09 02:12:59;;;;;;;55.47;13.95;;;1.00;99.90;;;;;;5076514;28;20047;-76
2023/03/09 02:15:25;;;;;;;55.42;13.35;;;0.90;99.90;;;;;;5059902;28;20056;-76
2023/03/09 02:17:51;;;;;;;51.05;12.60;;;0.90;99.90;;;;;;5094088;28;20359;-76
2023/03/09 02:20:38;;;;;;;57.13;14.38;;;1.00;99.90;;;;;;5095347;28;20054;-74
2023/03/09 02:23:12;;;;;;;;;;;0.90;99.90;;;;;;5062032;28;20047;-76
2023/03/09 02:25:49;;;;;;;56.88;12.82;;;1.00;99.90;;;;;;5076062;28;19994;-75
2023/03/09 02:28:15;;;;;;;;;;;1.00;99.90;;;;;;5077174;28;20066;-75
2023/03/09 02:30:43;;;;;;;62.25;17.88;;;1.00;99.90;;;;;;5058869;28;19920;-75
2023/03/09 02:33:11;;;;;;;59.75;14.63;;;1.00;99.90;;;;;;5076097;28;20105;-76
2023/03/09 02:35:37;;;;;;;57.97;12.55;;;1.00;99.90;;;;;;5076119;28;20048;-75
2023/03/09 02:38:08;;;;;;;59.78;14.27;;;1.00;99.90;;;;;;5059405;28;20498;-75
2023/03/09 02:40:35;;;;;;;55.80;13.30;;;0.90;99.90;;;;;;5093726;28;20063;-75
2023/03/09 02:43:03;;;;;;;69.25;15.93;;;0.90;99.90;;;;;;5075520;28;20045;-75
2023/03/09 02:45:31;;;;;;;59.22;13.07;;;0.90;99.90;;;;;;5059382;28;20400;-75
2023/03/09 02:47:57;;;;;;;;;;;0.90;99.90;;;;;;5076765;28;20086;-74
2023/03/09 02:50:23;;;;;;;57.35;12.05;;;1.00;99.90;;;;;;5093771;28;19931;-74
2023/03/09 02:52:49;;;;;;;60.97;12.13;;;0.90;99.90;;;;;;5096867;28;20094;-74
2023/03/09 02:55:15;;;;;;;55.58;13.02;;;0.90;99.90;;;;;;5097604;28;20047;-75
2023/03/09 02:57:42;;;;;;;59.65;11.82;;;0.90;99.90;;;;;;5098260;28;20479;-74
2023/03/09 03:00:10;;;;;;;63.53;15.83;;;0.90;99.90;;;;;;5062984;28;20083;-75
2023/03/09 03:02:37;;;;;;;61.33;11.75;;;0.90;99.90;;;;;;5078999;28;20586;-75
2023/03/09 03:05:04;;;;;;;58.30;14.55;;;1.00;99.90;;;;;;5063599;28;20489;-76
2023/03/09 03:07:30;;;;;;;65.63;16.42;;;0.90;99.90;;;;;;5062626;28;20127;-74
2023/03/09 03:09:56;;;;;;;66.45;15.52;;;0.90;99.90;;;;;;5097505;28;20128;-74
2023/03/09 03:12:22;;;;;;;61.17;13.05;;;0.90;99.90;;;;;;5097340;28;20479;-74
2023/03/09 03:14:48;;;;;;;68.25;14.35;;;0.90;99.90;;;;;;5097342;28;20059;-75
2023/03/09 03:17:13;;;;;;;53.55;13.02;;;0.90;99.90;;;;;;5097257;28;20048;-74
2023/03/09 03:19:39;;;;;;;52.10;13.30;;;0.90;99.90;;;;;;5097644;28;20131;-73
2023/03/09 03:22:05;;;;;;;57.17;13.23;;;0.90;99.90;;;;;;5079798;28;20138;-74
2023/03/09 03:24:34;;;;;;;50.83;10.85;;;0.90;99.90;;;;;;5071408;28;20493;-73
2023/03/09 03:27:00;;;;;;;55.97;14.07;;;1.00;99.90;;;;;;5056592;28;20516;-74
2023/03/09 03:29:26;;;;;;;56.20;12.20;;;0.90;99.90;;;;;;5056149;28;20045;-76
2023/03/09 03:31:52;;;;;;;62.63;13.98;;;1.00;99.90;;;;;;5040330;28;20397;-75
2023/03/09 03:34:17;;;;;;;56.40;13.27;;;1.00;99.90;;;;;;5058443;28;20056;-74
2023/03/09 03:36:43;;;;;;;47.10;12.15;;;1.10;99.90;;;;;;5039942;28;20128;-75
2023/03/09 03:39:09;;;;;;;59.83;12.48;;;1.00;99.90;;;;;;5038851;28;20505;-75
2023/03/09 03:41:34;;;;;;;53.50;12.30;;;1.00;99.90;;;;;;5055457;28;20048;-74
2023/03/09 03:44:00;;;;;;;63.80;13.90;;;1.00;99.90;;;;;;5055319;28;20461;-74
2023/03/09 03:46:26;;;;;;;59.95;13.77;;;1.00;99.90;;;;;;5038522;28;20049;-74
2023/03/09 03:48:52;;;;;;;57.30;12.80;;;1.00;99.90;;;;;;5038641;28;20140;-75
2023/03/09 03:51:17;;;;;;;69.20;15.82;;;1.00;99.90;;;;;;5055064;28;20049;-75
2023/03/09 03:53:43;;;;;;;68.97;14.77;;;0.90;99.90;;;;;;5054889;28;20132;-74
2023/03/09 03:56:10;;;;;;;69.95;18.38;;;1.00;99.90;;;;;;5054948;28;20056;-75
2023/03/09 03:58:35;;;;;;;56.93;13.17;;;0.90;99.90;;;;;;5054945;28;20048;-74
2023/03/09 04:01:03;;;;;;;62.53;13.77;;;0.90;99.90;;;;;;5056357;28;20110;-75
2023/03/09 04:03:29;;;;;;;59.05;13.43;;;1.00;99.90;;;;;;5055682;28;20045;-75
2023/03/09 04:05:55;;;;;;;52.30;12.30;;;1.00;99.90;;;;;;5054893;28;20040;-75
2023/03/09 04:08:20;;;;;;;60.75;13.30;;;1.00;99.90;;;;;;5038743;28;20045;-76
2023/03/09 04:10:46;;;;;;;56.95;13.95;;;1.00;99.90;;;;;;5056215;28;20520;-74
2023/03/09 04:13:12;;;;;;;58.95;13.70;;;1.00;99.90;;;;;;5039455;28;20367;-75
2023/03/09 04:15:38;;;;;;;55.85;13.23;;;1.00;99.90;;;;;;5056137;28;20098;-74
2023/03/09 04:18:04;;;;;;;49.90;13.23;;;1.00;99.90;;;;;;5056818;28;20049;-74
2023/03/09 04:20:30;;;;;;;55.67;13.43;;;1.00;99.90;;;;;;5037936;28;20080;-75
2023/03/09 04:22:55;;;;;;;54.10;12.40;;;1.00;99.90;;;;;;5056051;28;20112;-75
2023/03/09 04:25:21;;;;;;;52.13;13.10;;;1.00;99.90;;;;;;5078146;28;20051;-75
2023/03/09 04:27:47;;;;;;;57.75;14.35;;;1.00;99.90;;;;;;5078359;28;20440;-75
2023/03/09 04:30:13;;;;;;;55.40;13.20;;;1.00;99.90;;;;;;5095757;28;20044;-75
2023/03/09 04:32:39;;;;;;;47.70;11.55;;;1.10;99.90;;;;;;5077810;28;20052;-73
2023/03/09 04:35:06;;;;;;;57.63;13.15;;;1.10;99.90;;;;;;5078357;28;20124;-76
2023/03/09 04:37:32;;;;;;;52.00;13.32;;;1.10;99.90;;;;;;5061872;28;20104;-74
2023/03/09 04:39:58;;;;;;;56.25;14.20;;;1.10;99.90;;;;;;5077999;28;20509;-75
2023/03/09 04:42:23;;;;;;;60.47;15.85;;;1.10;99.90;;;;;;5095412;28;20105;-74
2023/03/09 04:44:49;;;;;;;59.28;13.80;;;1.10;99.90;;;;;;5095456;28;20055;-76
2023/03/09 04:47:15;;;;;;;62.58;13.55;;;1.10;99.90;;;;;;5060719;28;20044;-76
2023/03/09 04:49:41;;;;;;;56.60;13.80;;;1.10;99.90;;;;;;5095364;28;20047;-75
2023/03/09 04:52:08;;;;;;;58.92;14.88;;;1.00;99.90;;;;;;5095691;28;20047;-76
2023/03/09 04:54:33;;;;;;;57.97;15.83;;;1.00;99.90;;;;;;5077369;28;20094;-76
2023/03/09 04:56:59;;;;;;;62.15;14.88;;;1.00;99.90;;;;;;5077240;28;20777;-75
2023/03/09 04:59:25;;;;;;;60.63;13.75;;;1.00;99.90;;;;;;5077522;28;20039;-75
2023/03/09 05:01:50;;;;;;;58.58;14.50;;;0.90;99.90;;;;;;5095581;28;20097;-74
2023/03/09 05:04:18;;;;;;;53.13;14.57;;;0.90;99.90;;;;;;5043891;28;20040;-75
2023/03/09 05:06:44;;;;;;;48.15;12.48;;;0.90;99.90;;;;;;5095790;28;20127;-75
2023/03/09 05:09:11;;;;;;;49.00;12.73;;;0.80;99.90;;;;;;5077411;28;20043;-75
2023/03/09 05:11:36;;;;;;;53.77;14.70;;;0.80;99.90;;;;;;5061195;28;20491;-75
2023/03/09 05:14:02;;;;;;;50.55;13.90;;;0.80;99.90;;;;;;5094669;28;20040;-74
2023/03/09 05:16:28;;;;;;;49.10;13.05;;;0.90;99.90;;;;;;5061262;28;20429;-75
2023/03/09 05:18:54;;;;;;;55.30;14.07;;;0.80;99.90;;;;;;5094808;28;20157;-75
2023/03/09 05:21:20;;;;;;;51.28;14.00;;;0.90;99.90;;;;;;5076886;28;20040;-75
2023/03/09 05:23:46;;;;;;;54.08;14.07;;;0.80;99.90;;;;;;5094785;28;20131;-75
2023/03/09 05:26:12;;;;;;;48.42;13.23;;;0.80;99.90;;;;;;5076633;28;20551;-75
2023/03/09 05:28:40;;;;;;;53.58;12.85;;;0.80;99.90;;;;;;5076719;28;20069;-75
2023/03/09 05:31:13;;;;;;;48.58;12.73;;;0.80;99.90;;;;;;5076757;28;20127;-76
2023/03/09 05:33:39;;;;;;;42.67;11.40;;;0.90;99.90;;;;;;5077019;28;20055;-75
2023/03/09 05:36:18;;;;;;;47.38;12.32;;;0.90;99.90;;;;;;5077677;28;20380;-76
2023/03/09 05:38:44;;;;;;;43.50;11.95;;;0.90;99.90;;;;;;5081529;28;20445;-74
2023/03/09 05:41:10;;;;;;;45.42;11.43;;;0.90;99.90;;;;;;5067144;28;20048;-75
2023/03/09 05:43:36;;;;;;;46.15;12.88;;;0.90;99.90;;;;;;5083661;28;20127;-75
2023/03/09 05:46:02;;;;;;;48.25;12.15;;;0.90;99.90;;;;;;5067540;28;20047;-75
2023/03/09 05:48:28;;;;;;;43.88;12.43;;;1.00;99.90;;;;;;5065809;28;20044;-74
2023/03/09 05:50:54;;;;;;;43.17;12.00;;;0.90;99.90;;;;;;5099524;28;20128;-74
2023/03/09 05:53:20;;;;;;;44.72;11.93;;;0.90;99.90;;;;;;5097104;28;20040;-74
2023/03/09 05:55:52;;;;;;;43.08;11.75;;;0.90;99.90;;;;;;5079360;28;20095;-75
2023/03/09 05:58:17;;;;;;;47.63;11.50;;;0.90;99.90;;;;;;5094244;28;20047;-75
2023/03/09 06:00:43;;;;;;;44.22;11.68;;;0.90;99.90;;;;;;5043339;28;20138;-76
2023/03/09 06:03:09;;;;;;;40.08;11.85;;;1.00;99.90;;;;;;5059933;28;20075;-75
2023/03/09 06:05:35;;;;;;;41.45;11.63;;;0.90;99.90;;;;;;5043704;28;20040;-76
2023/03/09 06:08:00;;;;;;;47.40;13.73;;;1.00;99.90;;;;;;5075651;28;20032;-76
2023/03/09 06:10:26;;;;;;;41.30;12.55;;;0.90;99.90;;;;;;5094617;28;20085;-75
2023/03/09 06:12:52;;;;;;;39.80;11.32;;;0.90;99.90;;;;;;5059557;28;20079;-76
2023/03/09 06:15:18;;;;;;;40.10;11.27;;;1.00;99.90;;;;;;5093862;28;20055;-75
2023/03/09 06:17:43;;;;;;;55.53;14.07;;;1.00;99.90;;;;;;5094002;28;20043;-76
2023/03/09 06:20:10;;;;;;;44.15;12.65;;;1.00;99.90;;;;;;5094032;28;20083;-76
2023/03/09 06:22:35;;;;;;;39.92;11.90;;;1.10;99.90;;;;;;5059693;28;20047;-75
2023/03/09 06:25:01;;;;;;;41.05;13.18;;;1.10;99.90;;;;;;5075671;28;20048;-75
2023/03/09 06:27:27;;;;;;;40.08;11.65;;;1.20;99.90;;;;;;5075855;28;20413;-75
2023/03/09 06:29:53;;;;;;;42.25;11.63;;;1.10;99.90;;;;;;5058968;28;20502;-74
2023/03/09 06:32:20;;;;;;;44.53;11.95;;;1.10;99.90;;;;;;5075929;28;20135;-74
2023/03/09 06:34:46;;;;;;;43.17;12.48;;;1.20;99.90;;;;;;5058499;28;20484;-74
2023/03/09 06:37:11;;;;;;;44.72;13.05;;;1.10;99.90;;;;;;5093513;28;20044;-75
2023/03/09 06:39:37;;;;;;;39.40;11.00;;;1.20;99.90;;;;;;5058940;28;20044;-75
2023/03/09 06:42:03;;;;;;;44.58;12.20;;;1.20;99.90;;;;;;5075764;28;20040;-75
2023/03/09 06:44:29;;;;;;;44.40;13.65;;;1.20;99.90;;;;;;5093500;28;20040;-74
2023/03/09 06:46:55;;;;;;;44.63;12.82;;;1.20;99.90;;;;;;5093962;28;20048;-75
2023/03/09 06:49:20;;;;;;;46.03;13.00;;;1.30;99.90;;;;;;5042692;28;20067;-75
2023/03/09 06:51:46;;;;;;;44.78;13.07;;;1.30;99.90;;;;;;5075684;28;20109;-74
2023/03/09 06:54:14;;;;;;;52.33;14.85;;;1.30;99.90;;;;;;5075362;28;20437;-75
2023/03/09 06:56:40;;;;;;;48.03;14.20;;;1.30;99.90;;;;;;5075665;28;20040;-76
2023/03/09 06:59:05;;;;;;;50.17;14.23;;;1.30;99.90;;;;;;5059131;28;20052;-74
2023/03/09 07:01:33;;;;;;;55.83;15.05;;;1.40;99.90;;;;;;5075695;28;20149;-77
2023/03/09 07:03:59;;;;;;;49.80;13.38;;;1.50;99.90;;;;;;5075706;28;20124;-75
2023/03/09 07:06:25;;;;;;;47.53;14.25;;;1.50;99.90;;;;;;5093594;28;20083;-75
2023/03/09 07:08:50;;;;;;;44.83;13.60;;;1.60;99.90;;;;;;5093700;28;20044;-75
2023/03/09 07:11:16;;;;;;;49.95;13.70;;;1.70;99.90;;;;;;5060874;28;20102;-75
2023/03/09 07:13:42;;;;;;;45.95;13.15;;;1.70;99.90;;;;;;5077994;28;20044;-76
2023/03/09 07:16:08;;;;;;;44.75;12.88;;;1.80;99.90;;;;;;5076537;28;20051;-75
2023/03/09 07:18:34;;;;;;;42.40;12.82;;;1.80;99.90;;;;;;5075794;28;20048;-75
2023/03/09 07:21:01;;;;;;;46.13;13.80;;;1.90;99.90;;;;;;5075705;28;20048;-76
2023/03/09 07:23:31;;;;;;;46.72;13.35;;;1.90;99.90;;;;;;5075379;28;20508;-75
2023/03/09 07:26:03;;;;;;;46.42;13.70;;;1.90;99.90;;;;;;5093280;28;20145;-74
2023/03/09 07:28:29;;;;;;;48.40;14.30;;;1.90;99.90;;;;;;5075943;28;20065;-75
2023/03/09 07:30:55;;;;;;;43.20;14.05;;;1.90;99.90;;;;;;5058391;28;20063;-76
2023/03/09 07:33:21;;;;;;;49.45;14.07;;;2.00;99.90;;;;;;5058739;28;20113;-76
2023/03/09 07:35:47;;;;;;;52.13;15.35;;;1.90;99.90;;;;;;5093027;28;20075;-76
2023/03/09 07:38:12;;;;;;;42.95;13.10;;;1.90;99.90;;;;;;5060382;28;20059;-74
2023/03/09 07:40:39;;;;;;;51.75;14.82;;;2.00;99.90;;;;;;5097352;28;20445;-75
2023/03/09 07:43:05;;;;;;;48.13;14.15;;;2.00;99.90;;;;;;5096550;28;20047;-75
2023/03/09 07:45:30;;;;;;;44.67;14.20;;;2.00;99.90;;;;;;5096799;28;20048;-75
2023/03/09 07:47:56;;;;;;;44.92;14.00;;;2.10;99.90;;;;;;5079092;28;20109;-76
2023/03/09 07:50:23;;;;;;;46.20;14.60;;;2.30;99.90;;;;;;5078678;28;20083;-75
2023/03/09 07:52:49;;;;;;;45.08;13.13;;;2.30;99.90;;;;;;5096462;28;20101;-75
2023/03/09 07:55:15;;;;;;;44.25;13.32;;;2.40;99.90;;;;;;5061997;28;20052;-77
2023/03/09 07:57:42;;;;;;;43.03;13.02;;;2.20;99.90;;;;;;5078278;28;20093;-75
2023/03/09 08:00:12;;;;;;;43.35;12.73;;;2.40;99.90;;;;;;5078053;28;20047;-76
2023/03/09 08:02:42;;;;;;;43.10;13.40;;;2.50;99.90;;;;;;5079056;28;20040;-75
2023/03/09 08:05:10;;;;;;;42.97;13.18;;;2.40;99.90;;;;;;5078089;28;20044;-74
2023/03/09 08:07:36;;;;;;;43.28;12.15;;;2.50;99.90;;;;;;5062314;28;20052;-75
2023/03/09 08:10:03;;;;;;;40.13;12.70;;;2.40;99.90;;;;;;5078454;28;20040;-74
2023/03/09 08:12:29;;;;;;;44.22;14.25;;;2.50;99.90;;;;;;5078251;28;20051;-76
2023/03/09 08:14:54;;;;;;;40.75;12.80;;;2.60;99.90;;;;;;5096018;28;20052;-76
2023/03/09 08:17:20;;;;;;;44.35;13.13;;;2.60;99.90;;;;;;5077861;28;20131;-76
2023/03/09 08:19:46;;;;;;;45.20;13.15;;;2.70;99.90;;;;;;5061312;28;20059;-75
2023/03/09 08:22:11;;;;;;;50.35;14.77;;;2.80;99.90;;;;;;5078784;28;20058;-76
2023/03/09 08:24:41;;;;;;;50.85;14.52;;;2.80;99.90;;;;;;5078144;28;20055;-76
2023/03/09 08:27:07;;;;;;;42.00;12.98;;;2.80;99.90;;;;;;5061137;28;20475;-76
2023/03/09 08:29:33;;;;;;;42.20;13.73;;;2.80;99.90;;;;;;5077773;28;20050;-77
2023/03/09 08:31:58;;;;;;;42.05;12.63;;;2.90;99.90;;;;;;5078776;28;20043;-75
2023/03/09 08:34:24;;;;;;;48.55;14.63;;;2.90;99.90;;;;;;5061052;28;20047;-76
2023/03/09 08:36:50;;;;;;;42.15;13.30;;;3.00;99.90;;;;;;5044473;28;20115;-76
2023/03/09 08:39:16;;;;;;;46.53;14.65;;;3.00;99.90;;;;;;5061436;28;20101;-76
2023/03/09 08:41:41;;;;;;;49.30;14.13;;;3.00;99.90;;;;;;5096503;28;20048;-76
2023/03/09 08:44:08;;;;;;;46.38;14.43;;;3.10;99.90;;;;;;5095450;28;20039;-76
2023/03/09 08:46:33;;;;;;;39.47;12.97;;;2.90;99.90;;;;;;5078133;28;20119;-76
2023/03/09 08:49:00;;;;;;;43.92;13.80;;;3.00;99.90;;;;;;5059731;28;20333;-77
2023/03/09 08:51:28;;;;;;;40.70;13.20;;;3.10;99.90;;;;;;5060340;28;20043;-76
2023/03/09 08:53:55;;;;;;;43.25;13.43;;;3.30;99.90;;;;;;5095333;28;20052;-75
2023/03/09 08:56:21;;;;;;;;;;;3.30;99.90;;;;;;5061015;28;20048;-76
2023/03/09 08:58:47;;;;;;;38.17;12.27;;;3.40;99.90;;;;;;5077478;28;19926;-75
2023/03/09 09:01:12;;;;;;;41.05;13.40;;;3.50;99.90;;;;;;5077604;28;20044;-77
2023/03/09 09:03:38;;;;;;;42.28;12.65;;;3.40;99.90;;;;;;5077924;28;20050;-77
2023/03/09 09:06:07;;;;;;;47.10;12.93;;;3.40;99.90;;;;;;5077577;28;20051;-76
2023/03/09 09:08:33;;;;;;;44.25;14.05;;;3.40;99.90;;;;;;5077159;28;20134;-76
2023/03/09 09:10:59;;;;;;;47.20;13.33;;;3.50;99.90;;;;;;5060660;28;20430;-75
2023/03/09 09:13:25;;;;;;;39.08;12.40;;;3.50;99.90;;;;;;5060539;28;20040;-77
2023/03/09 09:15:54;;;;;;;38.55;12.05;;;3.50;99.90;;;;;;5076890;28;20399;-75
2023/03/09 09:18:24;;;;;;;47.53;13.90;;;3.50;99.90;;;;;;5044628;28;20052;-76
2023/03/09 09:20:49;;;;;;;47.22;13.02;;;3.70;99.90;;;;;;5077081;28;20051;-76
2023/03/09 09:23:15;;;;;;;49.00;15.75;;;3.50;99.90;;;;;;5076806;28;20044;-77
2023/03/09 09:25:41;;;;;;;49.72;14.80;;;3.40;99.90;;;;;;5028327;28;20056;-75
2023/03/09 09:28:07;;;;;;;47.45;14.98;;;3.60;99.90;;;;;;5036859;28;20401;-76
2023/03/09 09:30:33;;;;;;;43.28;13.57;;;3.70;99.90;;;;;;5054403;28;20393;-76
2023/03/09 09:33:00;;;;;;;42.63;14.43;;;3.80;99.90;;;;;;5037968;28;20045;-76
2023/03/09 09:35:26;;;;;;;;;;;3.90;99.90;;;;;;5054223;28;20362;-76
2023/03/09 09:37:54;;;;;;;43.30;13.65;;;4.00;99.90;;;;;;5054532;28;19927;-76
2023/03/09 09:40:21;;;;;;;44.72;13.73;;;4.00;99.90;;;;;;5036866;28;20049;-76
2023/03/09 09:42:47;;;;;;;45.13;13.20;;;3.90;99.90;;;;;;5036904;28;20053;-76
2023/03/09 09:45:28;;;;;;;43.38;12.50;;;3.80;99.90;;;;;;5036856;28;20059;-76
2023/03/09 09:47:57;;;;;;;43.83;13.38;;;3.90;99.90;;;;;;5054991;28;20416;-76
2023/03/09 09:50:36;;;;;;;45.85;13.55;;;3.90;99.90;;;;;;5054281;28;20048;-77
2023/03/09 09:53:29;;;;;;;48.10;14.20;;;4.00;99.90;;;;;;5036169;28;20049;-77
2023/03/09 09:55:56;;;;;;;48.67;13.35;;;3.90;99.90;;;;;;5053670;28;20063;-76
2023/03/09 09:58:40;;;;;;;45.72;13.98;;;3.90;99.90;;;;;;5052604;28;20051;-76
2023/03/09 10:01:34;;;;;;;46.25;13.48;;;3.80;99.90;;;;;;5035812;28;20041;-77
2023/03/09 10:04:07;;;;;;;50.40;14.13;;;3.80;99.90;;;;;;5040582;28;20059;-77
2023/03/09 10:06:33;;;;;;;50.35;14.77;;;3.80;99.90;;;;;;5057734;28;20059;-76
2023/03/09 10:09:06;;;;;;;46.35;14.10;;;3.80;99.90;;;;;;5059288;28;20101;-75
2023/03/09 10:11:44;;;;;;;50.33;14.50;;;3.80;99.90;;;;;;5041654;28;20056;-76
2023/03/09 10:14:25;;;;;;;49.90;14.35;;;3.90;99.90;;;;;;5058530;28;20049;-75
2023/03/09 10:16:56;;;;;;;48.60;14.68;;;3.90;99.90;;;;;;5062285;28;20041;-76
2023/03/09 10:19:34;;;;;;;48.00;14.23;;;3.90;99.90;;;;;;5059271;28;20056;-76
2023/03/09 10:22:02;;;;;;;45.50;13.13;;;4.10;99.90;;;;;;5057904;28;20049;-76
2023/03/09 10:24:46;;;;;;;43.38;13.02;;;4.20;99.90;;;;;;5060340;28;20041;-77
2023/03/09 10:27:15;;;;;;;56.10;16.02;;;4.20;99.90;;;;;;5077988;28;20052;-77
2023/03/09 10:29:49;;;;;;;48.72;13.85;;;4.20;99.90;;;;;;5076753;28;20135;-77
2023/03/09 10:32:32;;;;;;;49.58;14.93;;;4.20;99.90;;;;;;5094460;28;20044;-77
2023/03/09 10:35:08;;;;;;;51.15;15.15;;;4.20;99.90;;;;;;5059211;28;20172;-77
2023/03/09 10:37:35;;;;;;;49.30;14.52;;;4.30;99.90;;;;;;5059469;28;20395;-76
2023/03/09 10:40:05;;;;;;;48.38;13.73;;;4.30;99.90;;;;;;5093763;28;20388;-76
2023/03/09 10:42:36;;;;;;;49.20;14.70;;;4.30;99.90;;;;;;5076289;28;20384;-78
2023/03/09 10:45:30;;;;;;;56.33;15.05;;;4.40;99.90;;;;;;5059281;28;20231;-75
2023/03/09 10:48:02;;;;;;;54.08;15.13;;;4.40;99.90;;;;;;5094433;28;20119;-75
2023/03/09 10:50:37;;;;;;;47.08;15.13;;;4.30;99.90;;;;;;5075999;28;20048;-77
2023/03/09 10:53:41;;;;;;;48.22;14.02;;;4.50;99.90;;;;;;5059276;28;20044;-77
2023/03/09 10:56:22;;;;;;;49.72;14.82;;;4.50;99.90;;;;;;5093518;28;20040;-76
2023/03/09 10:59:06;;;;;;;49.08;13.68;;;4.60;99.90;;;;;;5094140;28;20048;-76
2023/03/09 11:01:38;;;;;;;53.97;15.65;;;4.80;99.90;;;;;;5093406;28;20044;-78
2023/03/09 11:04:24;;;;;;;55.15;14.63;;;4.60;99.90;;;;;;5058962;28;20040;-76
2023/03/09 11:06:54;;;;;;;52.60;14.93;;;4.60;99.90;;;;;;5075308;28;20040;-76
2023/03/09 11:09:29;;;;;;;52.28;11.65;;;4.60;99.90;;;;;;5058919;28;20543;-78
2023/03/09 11:12:27;;;;;;;61.80;17.85;;;4.60;99.90;;;;;;5075873;28;20080;-77
2023/03/09 11:14:59;;;;;;;64.03;18.13;;;4.50;99.90;;;;;;5078534;28;20100;-76
2023/03/09 11:17:40;;;;;;;52.83;16.00;;;4.50;99.90;;;;;;5097452;28;20135;-77
2023/03/09 11:20:12;;;;;;;57.40;16.30;;;4.50;99.90;;;;;;5079547;28;20044;-76
2023/03/09 11:22:42;;;;;;;60.60;17.10;;;4.50;99.90;;;;;;5096999;28;20047;-81
2023/03/09 11:25:17;;;;;;;55.28;16.45;;;4.50;99.90;;;;;;5062877;28;20047;-76
2023/03/09 11:27:51;;;;;;;60.47;15.55;;;4.60;99.90;;;;;;5079281;28;20123;-76
2023/03/09 11:30:21;;;;;;;62.33;17.30;;;4.50;99.90;;;;;;5097206;28;20479;-75
2023/03/09 11:32:46;;;;;;;73.80;17.48;;;4.30;99.90;;;;;;5078918;28;20127;-75
2023/03/09 11:35:14;;;;;;;60.00;17.95;;;4.40;99.90;;;;;;5078291;28;20080;-76
2023/03/09 11:37:51;;;;;;;60.55;17.90;;;4.60;99.90;;;;;;5097396;28;20036;-76
2023/03/09 11:40:18;;;;;;;;;;;4.70;99.90;;;;;;5080217;28;20380;-76
2023/03/09 11:42:53;;;;;;;;;;;4.80;99.90;;;;;;5062740;28;19916;-78
2023/03/09 11:45:22;;;;;;;57.08;14.90;;;4.90;99.90;;;;;;5097634;28;19923;-77
2023/03/09 11:47:55;;;;;;;64.82;18.60;;;5.00;99.90;;;;;;5097668;28;20123;-75
2023/03/09 11:50:29;;;;;;;65.97;18.88;;;5.00;99.90;;;;;;5080660;28;20036;-77
2023/03/09 11:53:23;;;;;;;56.83;16.48;;;5.00;99.90;;;;;;5097413;28;20372;-77
2023/03/09 11:56:02;;;;;;;63.80;16.83;;;4.90;99.90;;;;;;5063036;28;20051;-75
2023/03/09 11:58:37;;;;;;;64.10;20.10;;;4.80;99.90;;;;;;5062140;28;20104;-76
2023/03/09 12:01:21;;;;;;;67.28;18.48;;;4.80;99.90;;;;;;5078719;28;20071;-77
2023/03/09 12:03:59;;;;;;;54.72;15.85;;;4.80;99.90;;;;;;5079391;28;20447;-76
2023/03/09 12:06:32;;;;;;;61.60;18.42;;;4.80;99.90;;;;;;5079628;28;20055;-77
2023/03/09 12:09:00;;;;;;;58.85;15.77;;;4.60;99.90;;;;;;5078362;28;20044;-75
2023/03/09 12:11:34;;;;;;;58.72;16.35;;;4.50;99.90;;;;;;5078450;28;20052;-75
2023/03/09 12:14:24;;;;;;;60.75;17.08;;;4.60;99.90;;;;;;5061847;28;20573;-77
2023/03/09 12:16:59;;;;;;;62.58;17.52;;;4.60;99.90;;;;;;5078063;28;20043;-77
2023/03/09 12:19:29;;;;;;;64.43;16.77;;;4.60;99.90;;;;;;5078768;28;20475;-77
2023/03/09 12:22:16;;;;;;;62.60;16.65;;;4.70;99.90;;;;;;5062247;28;20186;-75
2023/03/09 12:25:12;;;;;;;57.15;16.63;;;4.80;99.90;;;;;;5097832;28;20063;-78
2023/03/09 12:27:54;;;;;;;62.25;16.13;;;4.80;99.90;;;;;;5054788;28;20053;-77
2023/03/09 12:30:30;;;;;;;64.47;17.90;;;5.00;99.90;;;;;;5058068;28;20071;-78
2023/03/09 12:33:00;;;;;;;64.55;17.67;;;5.20;99.90;;;;;;5055639;28;20048;-78
2023/03/09 12:35:41;;;;;;;61.30;17.27;;;5.30;99.90;;;;;;5038835;28;20043;-76
2023/03/09 12:38:18;;;;;;;61.80;16.08;;;5.30;99.90;;;;;;5038278;28;20110;-76
2023/03/09 12:40:44;;;;;;;58.92;15.95;;;5.40;99.90;;;;;;5037863;28;20079;-77
2023/03/09 12:43:15;;;;;;;59.85;17.27;;;5.50;99.90;;;;;;5055418;28;20076;-76
2023/03/09 12:45:43;;;;;;;63.08;17.83;;;5.50;99.90;;;;;;5054657;28;20048;-75
2023/03/09 12:48:25;;;;;;;62.40;17.10;;;5.60;99.90;;;;;;5038858;28;20060;-77
2023/03/09 12:50:59;;;;;;;63.97;18.98;;;5.60;99.90;;;;;;5055391;28;20435;-76